sensor_id;sensor_type;location;lat;lon;timestamp;P1;durP1;ratioP1;P2;durP2;ratioP2
79137;SDS011;68544;45.566;10.238;2024-02-21T00:01:24;67.07;;;57.80;;
79137;SDS011;68544;45.566;10.238;2024-02-21T00:03:49;68.73;;;58.20;;
79137;SDS011;68544;45.566;10.238;2024-02-21T00:06:15;68.67;;;56.60;;
79137;SDS011;68544;45.566;10.238;2024-02-21T00:08:40;67.00;;;53.40;;
79137;SDS011;68544;45.566;10.238;2024-02-21T00:11:05;59.07;;;52.13;;
79137;SDS011;68544;45.566;10.238;2024-02-21T00:13:31;59.93;;;48.83;;
79137;SDS011;68544;45.566;10.238;2024-02-21T00:15:57;60.67;;;50.43;;
79137;SDS011;68544;45.566;10.238;2024-02-21T00:18:22;61.60;;;51.37;;
79137;SDS011;68544;45.566;10.238;2024-02-21T00:20:47;61.83;;;51.93;;
79137;SDS011;68544;45.566;10.238;2024-02-21T00:23:13;63.33;;;52.83;;
79137;SDS011;68544;45.566;10.238;2024-02-21T00:25:38;65.40;;;53.07;;
79137;SDS011;68544;45.566;10.238;2024-02-21T00:28:04;48.27;;;38.63;;
79137;SDS011;68544;45.566;10.238;2024-02-21T00:30:30;56.00;;;47.13;;
79137;SDS011;68544;45.566;10.238;2024-02-21T00:32:56;44.63;;;33.10;;
79137;SDS011;68544;45.566;10.238;2024-02-21T00:35:21;53.53;;;42.93;;
79137;SDS011;68544;45.566;10.238;2024-02-21T00:37:47;51.97;;;42.50;;
79137;SDS011;68544;45.566;10.238;2024-02-21T00:40:12;49.80;;;40.70;;
79137;SDS011;68544;45.566;10.238;2024-02-21T00:42:37;51.13;;;41.93;;
79137;SDS011;68544;45.566;10.238;2024-02-21T00:45:03;43.63;;;38.43;;
79137;SDS011;68544;45.566;10.238;2024-02-21T00:47:29;44.35;;;37.33;;
79137;SDS011;68544;45.566;10.238;2024-02-21T00:49:54;34.83;;;28.60;;
79137;SDS011;68544;45.566;10.238;2024-02-21T00:52:20;48.87;;;39.63;;
79137;SDS011;68544;45.566;10.238;2024-02-21T00:54:45;49.60;;;41.80;;
79137;SDS011;68544;45.566;10.238;2024-02-21T00:57:11;49.53;;;42.57;;
79137;SDS011;68544;45.566;10.238;2024-02-21T00:59:37;56.43;;;46.73;;
79137;SDS011;68544;45.566;10.238;2024-02-21T01:02:02;58.40;;;49.55;;
79137;SDS011;68544;45.566;10.238;2024-02-21T01:04:27;44.10;;;36.27;;
79137;SDS011;68544;45.566;10.238;2024-02-21T01:06:53;43.60;;;34.97;;
79137;SDS011;68544;45.566;10.238;2024-02-21T01:09:18;43.90;;;35.80;;
79137;SDS011;68544;45.566;10.238;2024-02-21T01:11:43;41.37;;;34.83;;
79137;SDS011;68544;45.566;10.238;2024-02-21T01:14:09;30.87;;;26.63;;
79137;SDS011;68544;45.566;10.238;2024-02-21T01:16:36;39.60;;;33.03;;
79137;SDS011;68544;45.566;10.238;2024-02-21T01:19:01;40.60;;;33.87;;
79137;SDS011;68544;45.566;10.238;2024-02-21T01:21:26;41.90;;;33.47;;
79137;SDS011;68544;45.566;10.238;2024-02-21T01:23:52;37.40;;;32.17;;
79137;SDS011;68544;45.566;10.238;2024-02-21T01:26:17;42.93;;;35.33;;
79137;SDS011;68544;45.566;10.238;2024-02-21T01:28:43;45.13;;;35.88;;
79137;SDS011;68544;45.566;10.238;2024-02-21T01:31:08;43.33;;;36.27;;
79137;SDS011;68544;45.566;10.238;2024-02-21T01:33:34;45.23;;;37.40;;
79137;SDS011;68544;45.566;10.238;2024-02-21T01:36:04;45.40;;;38.38;;
79137;SDS011;68544;45.566;10.238;2024-02-21T01:38:31;43.95;;;37.38;;
79137;SDS011;68544;45.566;10.238;2024-02-21T01:40:57;45.30;;;37.80;;
79137;SDS011;68544;45.566;10.238;2024-02-21T01:43:23;43.27;;;37.50;;
79137;SDS011;68544;45.566;10.238;2024-02-21T01:45:49;43.00;;;36.37;;
79137;SDS011;68544;45.566;10.238;2024-02-21T01:48:19;41.25;;;35.50;;
79137;SDS011;68544;45.566;10.238;2024-02-21T01:50:51;39.90;;;34.38;;
79137;SDS011;68544;45.566;10.238;2024-02-21T01:53:19;39.13;;;33.50;;
79137;SDS011;68544;45.566;10.238;2024-02-21T01:55:48;41.38;;;34.15;;
79137;SDS011;68544;45.566;10.238;2024-02-21T01:58:14;40.77;;;34.63;;
79137;SDS011;68544;45.566;10.238;2024-02-21T02:00:40;44.60;;;34.95;;
79137;SDS011;68544;45.566;10.238;2024-02-21T02:03:07;39.28;;;34.33;;
79137;SDS011;68544;45.566;10.238;2024-02-21T02:05:35;40.00;;;32.38;;
79137;SDS011;68544;45.566;10.238;2024-02-21T02:08:01;37.90;;;32.42;;
79137;SDS011;68544;45.566;10.238;2024-02-21T02:10:26;28.47;;;23.97;;
79137;SDS011;68544;45.566;10.238;2024-02-21T02:12:51;37.13;;;30.53;;
79137;SDS011;68544;45.566;10.238;2024-02-21T02:15:17;40.20;;;30.52;;
79137;SDS011;68544;45.566;10.238;2024-02-21T02:17:43;33.00;;;27.53;;
79137;SDS011;68544;45.566;10.238;2024-02-21T02:20:08;35.70;;;28.67;;
79137;SDS011;68544;45.566;10.238;2024-02-21T02:22:34;36.72;;;29.73;;
79137;SDS011;68544;45.566;10.238;2024-02-21T02:25:02;33.00;;;27.48;;
79137;SDS011;68544;45.566;10.238;2024-02-21T02:27:28;33.33;;;27.58;;
79137;SDS011;68544;45.566;10.238;2024-02-21T02:29:53;31.47;;;27.80;;
79137;SDS011;68544;45.566;10.238;2024-02-21T02:32:19;30.50;;;26.83;;
79137;SDS011;68544;45.566;10.238;2024-02-21T02:34:44;31.90;;;27.83;;
79137;SDS011;68544;45.566;10.238;2024-02-21T02:37:09;25.13;;;21.00;;
79137;SDS011;68544;45.566;10.238;2024-02-21T02:39:35;23.27;;;19.07;;
79137;SDS011;68544;45.566;10.238;2024-02-21T02:42:01;34.80;;;26.03;;
79137;SDS011;68544;45.566;10.238;2024-02-21T02:44:27;30.65;;;26.25;;
79137;SDS011;68544;45.566;10.238;2024-02-21T02:46:52;29.77;;;24.60;;
79137;SDS011;68544;45.566;10.238;2024-02-21T02:49:18;28.37;;;24.33;;
79137;SDS011;68544;45.566;10.238;2024-02-21T02:51:43;32.10;;;25.13;;
79137;SDS011;68544;45.566;10.238;2024-02-21T02:54:09;22.63;;;17.27;;
79137;SDS011;68544;45.566;10.238;2024-02-21T02:56:34;29.70;;;23.65;;
79137;SDS011;68544;45.566;10.238;2024-02-21T02:59:00;19.63;;;16.93;;
79137;SDS011;68544;45.566;10.238;2024-02-21T03:01:25;29.67;;;23.33;;
79137;SDS011;68544;45.566;10.238;2024-02-21T03:03:51;21.97;;;17.57;;
79137;SDS011;68544;45.566;10.238;2024-02-21T03:06:16;25.27;;;19.07;;
79137;SDS011;68544;45.566;10.238;2024-02-21T03:08:42;23.67;;;20.30;;
79137;SDS011;68544;45.566;10.238;2024-02-21T03:11:07;26.60;;;21.17;;
79137;SDS011;68544;45.566;10.238;2024-02-21T03:13:33;32.00;;;24.88;;
79137;SDS011;68544;45.566;10.238;2024-02-21T03:15:59;28.70;;;23.13;;
79137;SDS011;68544;45.566;10.238;2024-02-21T03:18:24;30.43;;;22.67;;
79137;SDS011;68544;45.566;10.238;2024-02-21T03:20:49;29.53;;;23.87;;
79137;SDS011;68544;45.566;10.238;2024-02-21T03:23:15;26.77;;;23.20;;
79137;SDS011;68544;45.566;10.238;2024-02-21T03:25:40;22.60;;;17.60;;
79137;SDS011;68544;45.566;10.238;2024-02-21T03:28:06;27.83;;;22.35;;
79137;SDS011;68544;45.566;10.238;2024-02-21T03:30:31;28.27;;;21.87;;
79137;SDS011;68544;45.566;10.238;2024-02-21T03:32:57;26.00;;;20.97;;
79137;SDS011;68544;45.566;10.238;2024-02-21T03:35:22;26.17;;;21.73;;
79137;SDS011;68544;45.566;10.238;2024-02-21T03:37:51;26.17;;;21.40;;
79137;SDS011;68544;45.566;10.238;2024-02-21T03:40:16;25.17;;;21.37;;
79137;SDS011;68544;45.566;10.238;2024-02-21T03:42:42;19.60;;;16.00;;
79137;SDS011;68544;45.566;10.238;2024-02-21T03:45:07;24.73;;;20.37;;
79137;SDS011;68544;45.566;10.238;2024-02-21T03:47:33;23.77;;;19.58;;
79137;SDS011;68544;45.566;10.238;2024-02-21T03:49:59;24.63;;;19.30;;
79137;SDS011;68544;45.566;10.238;2024-02-21T03:52:24;22.75;;;20.13;;
79137;SDS011;68544;45.566;10.238;2024-02-21T03:54:50;24.97;;;19.77;;
79137;SDS011;68544;45.566;10.238;2024-02-21T03:57:15;24.50;;;20.37;;
79137;SDS011;68544;45.566;10.238;2024-02-21T04:02:07;19.52;;;17.02;;
79137;SDS011;68544;45.566;10.238;2024-02-21T04:04:34;15.52;;;12.85;;
79137;SDS011;68544;45.566;10.238;2024-02-21T04:07:02;20.38;;;17.63;;
79137;SDS011;68544;45.566;10.238;2024-02-21T04:09:31;20.52;;;15.95;;
79137;SDS011;68544;45.566;10.238;2024-02-21T04:11:57;20.00;;;15.63;;
79137;SDS011;68544;45.566;10.238;2024-02-21T04:14:22;19.17;;;16.07;;
79137;SDS011;68544;45.566;10.238;2024-02-21T04:16:47;19.13;;;15.20;;
79137;SDS011;68544;45.566;10.238;2024-02-21T04:19:13;20.07;;;15.83;;
79137;SDS011;68544;45.566;10.238;2024-02-21T04:21:38;21.87;;;18.07;;
79137;SDS011;68544;45.566;10.238;2024-02-21T04:24:03;20.97;;;17.37;;
79137;SDS011;68544;45.566;10.238;2024-02-21T04:28:55;20.38;;;17.30;;
79137;SDS011;68544;45.566;10.238;2024-02-21T04:31:21;20.83;;;16.33;;
79137;SDS011;68544;45.566;10.238;2024-02-21T04:33:46;20.67;;;16.90;;
79137;SDS011;68544;45.566;10.238;2024-02-21T04:36:11;18.10;;;14.13;;
79137;SDS011;68544;45.566;10.238;2024-02-21T04:38:37;23.40;;;19.33;;
79137;SDS011;68544;45.566;10.238;2024-02-21T04:41:04;26.15;;;19.17;;
79137;SDS011;68544;45.566;10.238;2024-02-21T04:43:29;27.03;;;19.67;;
79137;SDS011;68544;45.566;10.238;2024-02-21T04:45:54;23.67;;;18.70;;
79137;SDS011;68544;45.566;10.238;2024-02-21T04:48:20;21.37;;;17.67;;
79137;SDS011;68544;45.566;10.238;2024-02-21T04:50:45;21.65;;;16.45;;
79137;SDS011;68544;45.566;10.238;2024-02-21T04:53:11;15.90;;;14.17;;
79137;SDS011;68544;45.566;10.238;2024-02-21T04:55:36;10.57;;;9.43;;
79137;SDS011;68544;45.566;10.238;2024-02-21T04:58:02;15.43;;;12.37;;
79137;SDS011;68544;45.566;10.238;2024-02-21T05:00:27;13.23;;;9.83;;
79137;SDS011;68544;45.566;10.238;2024-02-21T05:02:53;11.70;;;9.80;;
79137;SDS011;68544;45.566;10.238;2024-02-21T05:05:18;14.23;;;10.90;;
79137;SDS011;68544;45.566;10.238;2024-02-21T05:07:43;12.53;;;9.83;;
79137;SDS011;68544;45.566;10.238;2024-02-21T05:10:09;12.47;;;10.03;;
79137;SDS011;68544;45.566;10.238;2024-02-21T05:12:34;12.40;;;10.35;;
79137;SDS011;68544;45.566;10.238;2024-02-21T05:15:00;13.40;;;10.63;;
79137;SDS011;68544;45.566;10.238;2024-02-21T05:17:25;15.20;;;11.27;;
79137;SDS011;68544;45.566;10.238;2024-02-21T05:19:51;16.70;;;12.30;;
79137;SDS011;68544;45.566;10.238;2024-02-21T05:22:16;15.83;;;12.80;;
79137;SDS011;68544;45.566;10.238;2024-02-21T05:24:41;15.53;;;13.03;;
79137;SDS011;68544;45.566;10.238;2024-02-21T05:27:07;20.70;;;16.00;;
79137;SDS011;68544;45.566;10.238;2024-02-21T05:29:32;18.37;;;13.90;;
79137;SDS011;68544;45.566;10.238;2024-02-21T05:31:59;17.30;;;14.45;;
79137;SDS011;68544;45.566;10.238;2024-02-21T05:34:24;14.67;;;11.63;;
79137;SDS011;68544;45.566;10.238;2024-02-21T05:36:53;23.02;;;17.17;;
79137;SDS011;68544;45.566;10.238;2024-02-21T05:39:18;16.27;;;12.03;;
79137;SDS011;68544;45.566;10.238;2024-02-21T05:41:44;22.27;;;16.57;;
79137;SDS011;68544;45.566;10.238;2024-02-21T05:44:10;19.67;;;15.83;;
79137;SDS011;68544;45.566;10.238;2024-02-21T05:46:36;21.33;;;17.10;;
79137;SDS011;68544;45.566;10.238;2024-02-21T05:49:01;15.77;;;12.70;;
79137;SDS011;68544;45.566;10.238;2024-02-21T05:51:26;20.90;;;17.13;;
79137;SDS011;68544;45.566;10.238;2024-02-21T05:53:52;20.17;;;16.70;;
79137;SDS011;68544;45.566;10.238;2024-02-21T05:56:17;22.50;;;17.03;;
79137;SDS011;68544;45.566;10.238;2024-02-21T05:58:43;21.93;;;16.80;;
79137;SDS011;68544;45.566;10.238;2024-02-21T06:01:08;17.77;;;13.70;;
79137;SDS011;68544;45.566;10.238;2024-02-21T06:03:34;14.15;;;12.02;;
79137;SDS011;68544;45.566;10.238;2024-02-21T06:08:26;13.35;;;10.90;;
79137;SDS011;68544;45.566;10.238;2024-02-21T06:10:52;14.90;;;10.77;;
79137;SDS011;68544;45.566;10.238;2024-02-21T06:13:19;13.23;;;10.07;;
79137;SDS011;68544;45.566;10.238;2024-02-21T06:15:50;14.63;;;11.10;;
79137;SDS011;68544;45.566;10.238;2024-02-21T06:18:19;9.60;;;8.00;;
79137;SDS011;68544;45.566;10.238;2024-02-21T06:20:45;15.13;;;11.48;;
79137;SDS011;68544;45.566;10.238;2024-02-21T06:23:15;15.02;;;11.88;;
79137;SDS011;68544;45.566;10.238;2024-02-21T06:25:41;15.15;;;12.23;;
79137;SDS011;68544;45.566;10.238;2024-02-21T06:28:07;15.32;;;12.02;;
79137;SDS011;68544;45.566;10.238;2024-02-21T06:30:33;16.97;;;11.33;;
79137;SDS011;68544;45.566;10.238;2024-02-21T06:32:58;17.60;;;14.57;;
79137;SDS011;68544;45.566;10.238;2024-02-21T06:35:24;21.13;;;15.73;;
79137;SDS011;68544;45.566;10.238;2024-02-21T06:37:50;19.80;;;14.83;;
79137;SDS011;68544;45.566;10.238;2024-02-21T06:40:20;22.63;;;13.85;;
79137;SDS011;68544;45.566;10.238;2024-02-21T06:42:47;16.40;;;13.10;;
79137;SDS011;68544;45.566;10.238;2024-02-21T06:45:13;18.55;;;13.30;;
79137;SDS011;68544;45.566;10.238;2024-02-21T06:47:38;19.13;;;13.73;;
79137;SDS011;68544;45.566;10.238;2024-02-21T06:50:04;11.10;;;9.53;;
79137;SDS011;68544;45.566;10.238;2024-02-21T06:52:29;19.95;;;13.93;;
79137;SDS011;68544;45.566;10.238;2024-02-21T06:54:56;19.25;;;13.98;;
79137;SDS011;68544;45.566;10.238;2024-02-21T06:57:21;14.10;;;10.00;;
79137;SDS011;68544;45.566;10.238;2024-02-21T06:59:47;24.70;;;14.90;;
79137;SDS011;68544;45.566;10.238;2024-02-21T07:02:12;20.10;;;14.67;;
79137;SDS011;68544;45.566;10.238;2024-02-21T07:04:37;20.57;;;15.10;;
79137;SDS011;68544;45.566;10.238;2024-02-21T07:07:03;19.13;;;15.67;;
79137;SDS011;68544;45.566;10.238;2024-02-21T07:09:28;14.50;;;11.30;;
79137;SDS011;68544;45.566;10.238;2024-02-21T07:11:56;20.50;;;15.02;;
79137;SDS011;68544;45.566;10.238;2024-02-21T07:14:22;18.58;;;14.88;;
79137;SDS011;68544;45.566;10.238;2024-02-21T07:16:47;19.57;;;14.20;;
79137;SDS011;68544;45.566;10.238;2024-02-21T07:19:13;19.27;;;13.73;;
79137;SDS011;68544;45.566;10.238;2024-02-21T07:21:38;14.07;;;10.47;;
79137;SDS011;68544;45.566;10.238;2024-02-21T07:24:06;17.83;;;14.20;;
79137;SDS011;68544;45.566;10.238;2024-02-21T07:26:32;18.73;;;13.80;;
79137;SDS011;68544;45.566;10.238;2024-02-21T07:28:58;20.57;;;14.13;;
79137;SDS011;68544;45.566;10.238;2024-02-21T07:31:23;18.60;;;12.87;;
79137;SDS011;68544;45.566;10.238;2024-02-21T07:33:48;17.87;;;14.23;;
79137;SDS011;68544;45.566;10.238;2024-02-21T07:36:14;18.63;;;14.57;;
79137;SDS011;68544;45.566;10.238;2024-02-21T07:38:40;22.20;;;15.00;;
79137;SDS011;68544;45.566;10.238;2024-02-21T07:41:06;18.45;;;15.55;;
79137;SDS011;68544;45.566;10.238;2024-02-21T07:43:31;20.07;;;15.37;;
79137;SDS011;68544;45.566;10.238;2024-02-21T07:45:57;18.53;;;14.03;;
79137;SDS011;68544;45.566;10.238;2024-02-21T07:48:22;22.13;;;15.20;;
79137;SDS011;68544;45.566;10.238;2024-02-21T07:50:51;21.92;;;14.63;;
79137;SDS011;68544;45.566;10.238;2024-02-21T07:53:17;16.63;;;11.97;;
79137;SDS011;68544;45.566;10.238;2024-02-21T07:55:42;24.70;;;15.50;;
79137;SDS011;68544;45.566;10.238;2024-02-21T07:58:07;21.60;;;15.13;;
79137;SDS011;68544;45.566;10.238;2024-02-21T08:00:33;20.40;;;14.00;;
79137;SDS011;68544;45.566;10.238;2024-02-21T08:02:58;19.00;;;14.53;;
79137;SDS011;68544;45.566;10.238;2024-02-21T08:05:23;21.33;;;14.13;;
79137;SDS011;68544;45.566;10.238;2024-02-21T08:07:49;18.33;;;14.60;;
79137;SDS011;68544;45.566;10.238;2024-02-21T08:10:14;19.45;;;14.80;;
79137;SDS011;68544;45.566;10.238;2024-02-21T08:12:40;22.00;;;15.27;;
79137;SDS011;68544;45.566;10.238;2024-02-21T08:15:05;24.93;;;15.43;;
79137;SDS011;68544;45.566;10.238;2024-02-21T08:17:33;19.75;;;16.02;;
79137;SDS011;68544;45.566;10.238;2024-02-21T08:19:59;26.20;;;15.83;;
79137;SDS011;68544;45.566;10.238;2024-02-21T08:22:24;19.83;;;14.83;;
79137;SDS011;68544;45.566;10.238;2024-02-21T08:24:49;21.67;;;15.03;;
79137;SDS011;68544;45.566;10.238;2024-02-21T08:27:15;21.67;;;15.50;;
79137;SDS011;68544;45.566;10.238;2024-02-21T08:29:40;21.23;;;15.43;;
79137;SDS011;68544;45.566;10.238;2024-02-21T08:32:05;22.30;;;15.83;;
79137;SDS011;68544;45.566;10.238;2024-02-21T08:34:31;20.33;;;15.53;;
79137;SDS011;68544;45.566;10.238;2024-02-21T08:36:59;19.75;;;16.20;;
79137;SDS011;68544;45.566;10.238;2024-02-21T08:39:24;19.77;;;15.23;;
79137;SDS011;68544;45.566;10.238;2024-02-21T08:41:50;20.00;;;15.70;;
79137;SDS011;68544;45.566;10.238;2024-02-21T08:44:16;21.38;;;15.27;;
79137;SDS011;68544;45.566;10.238;2024-02-21T08:46:41;18.77;;;14.73;;
79137;SDS011;68544;45.566;10.238;2024-02-21T08:49:06;24.23;;;15.70;;
79137;SDS011;68544;45.566;10.238;2024-02-21T08:51:32;21.40;;;15.67;;
79137;SDS011;68544;45.566;10.238;2024-02-21T08:53:57;17.27;;;14.43;;
79137;SDS011;68544;45.566;10.238;2024-02-21T08:56:23;23.92;;;14.18;;
79137;SDS011;68544;45.566;10.238;2024-02-21T08:58:49;18.50;;;13.23;;
79137;SDS011;68544;45.566;10.238;2024-02-21T09:01:15;17.42;;;14.73;;
79137;SDS011;68544;45.566;10.238;2024-02-21T09:03:40;20.13;;;13.93;;
79137;SDS011;68544;45.566;10.238;2024-02-21T09:06:06;16.17;;;13.50;;
79137;SDS011;68544;45.566;10.238;2024-02-21T09:08:32;16.75;;;13.70;;
79137;SDS011;68544;45.566;10.238;2024-02-21T09:10:58;17.52;;;13.82;;
79137;SDS011;68544;45.566;10.238;2024-02-21T09:13:25;19.25;;;14.88;;
79137;SDS011;68544;45.566;10.238;2024-02-21T09:15:50;22.20;;;14.40;;
79137;SDS011;68544;45.566;10.238;2024-02-21T09:18:15;19.20;;;14.37;;
79137;SDS011;68544;45.566;10.238;2024-02-21T09:20:42;19.17;;;13.88;;
79137;SDS011;68544;45.566;10.238;2024-02-21T09:23:07;16.08;;;13.77;;
79137;SDS011;68544;45.566;10.238;2024-02-21T09:25:33;17.88;;;13.98;;
79137;SDS011;68544;45.566;10.238;2024-02-21T09:27:59;17.83;;;12.50;;
79137;SDS011;68544;45.566;10.238;2024-02-21T09:30:26;19.08;;;13.05;;
79137;SDS011;68544;45.566;10.238;2024-02-21T09:32:51;15.50;;;12.63;;
79137;SDS011;68544;45.566;10.238;2024-02-21T09:37:43;18.52;;;14.02;;
79137;SDS011;68544;45.566;10.238;2024-02-21T09:40:08;16.43;;;13.33;;
79137;SDS011;68544;45.566;10.238;2024-02-21T09:42:38;17.35;;;14.05;;
79137;SDS011;68544;45.566;10.238;2024-02-21T09:45:07;16.02;;;12.85;;
79137;SDS011;68544;45.566;10.238;2024-02-21T09:47:43;16.65;;;13.98;;
79137;SDS011;68544;45.566;10.238;2024-02-21T09:50:16;17.10;;;14.45;;
79137;SDS011;68544;45.566;10.238;2024-02-21T09:52:43;17.42;;;14.50;;
79137;SDS011;68544;45.566;10.238;2024-02-21T09:55:09;17.58;;;13.32;;
79137;SDS011;68544;45.566;10.238;2024-02-21T09:57:37;14.88;;;13.27;;
79137;SDS011;68544;45.566;10.238;2024-02-21T10:00:04;13.95;;;11.68;;
79137;SDS011;68544;45.566;10.238;2024-02-21T10:02:33;13.35;;;11.60;;
79137;SDS011;68544;45.566;10.238;2024-02-21T10:04:58;15.60;;;12.23;;
79137;SDS011;68544;45.566;10.238;2024-02-21T10:07:24;14.70;;;12.43;;
79137;SDS011;68544;45.566;10.238;2024-02-21T10:09:59;16.83;;;14.13;;
79137;SDS011;68544;45.566;10.238;2024-02-21T10:12:26;16.80;;;13.18;;
79137;SDS011;68544;45.566;10.238;2024-02-21T10:14:59;22.07;;;14.93;;
79137;SDS011;68544;45.566;10.238;2024-02-21T10:17:28;17.65;;;14.20;;
79137;SDS011;68544;45.566;10.238;2024-02-21T10:19:54;17.80;;;13.55;;
79137;SDS011;68544;45.566;10.238;2024-02-21T10:22:19;18.13;;;15.57;;
79137;SDS011;68544;45.566;10.238;2024-02-21T10:24:46;21.95;;;15.82;;
79137;SDS011;68544;45.566;10.238;2024-02-21T10:27:11;23.13;;;17.10;;
79137;SDS011;68544;45.566;10.238;2024-02-21T10:29:37;23.13;;;16.90;;
79137;SDS011;68544;45.566;10.238;2024-02-21T10:34:32;28.00;;;17.92;;
79137;SDS011;68544;45.566;10.238;2024-02-21T10:37:01;25.73;;;18.10;;
79137;SDS011;68544;45.566;10.238;2024-02-21T10:39:28;20.55;;;16.48;;
79137;SDS011;68544;45.566;10.238;2024-02-21T10:41:54;23.77;;;17.83;;
79137;SDS011;68544;45.566;10.238;2024-02-21T10:44:24;24.27;;;16.40;;
79137;SDS011;68544;45.566;10.238;2024-02-21T10:46:53;20.42;;;17.38;;
79137;SDS011;68544;45.566;10.238;2024-02-21T10:49:22;20.63;;;16.30;;
79137;SDS011;68544;45.566;10.238;2024-02-21T10:51:50;18.52;;;15.35;;
79137;SDS011;68544;45.566;10.238;2024-02-21T10:54:40;17.27;;;14.90;;
79137;SDS011;68544;45.566;10.238;2024-02-21T10:57:15;16.75;;;14.75;;
79137;SDS011;68544;45.566;10.238;2024-02-21T10:59:44;17.15;;;14.13;;
79137;SDS011;68544;45.566;10.238;2024-02-21T11:02:10;18.92;;;12.38;;
79137;SDS011;68544;45.566;10.238;2024-02-21T11:07:01;20.25;;;13.63;;
79137;SDS011;68544;45.566;10.238;2024-02-21T11:09:31;14.88;;;12.35;;
79137;SDS011;68544;45.566;10.238;2024-02-21T11:12:03;15.25;;;12.65;;
79137;SDS011;68544;45.566;10.238;2024-02-21T11:14:30;12.63;;;11.13;;
79137;SDS011;68544;45.566;10.238;2024-02-21T11:17:14;17.65;;;11.30;;
79137;SDS011;68544;45.566;10.238;2024-02-21T11:19:40;16.45;;;12.65;;
79137;SDS011;68544;45.566;10.238;2024-02-21T11:22:05;17.42;;;13.30;;
79137;SDS011;68544;45.566;10.238;2024-02-21T11:24:39;16.35;;;13.85;;
79137;SDS011;68544;45.566;10.238;2024-02-21T11:29:45;18.60;;;15.23;;
79137;SDS011;68544;45.566;10.238;2024-02-21T11:32:11;19.00;;;15.82;;
79137;SDS011;68544;45.566;10.238;2024-02-21T11:34:40;18.63;;;16.05;;
79137;SDS011;68544;45.566;10.238;2024-02-21T11:37:14;20.88;;;17.38;;
79137;SDS011;68544;45.566;10.238;2024-02-21T11:39:43;20.73;;;18.52;;
79137;SDS011;68544;45.566;10.238;2024-02-21T11:42:08;20.00;;;17.52;;
79137;SDS011;68544;45.566;10.238;2024-02-21T11:44:35;23.02;;;19.75;;
79137;SDS011;68544;45.566;10.238;2024-02-21T11:47:03;25.83;;;22.10;;
79137;SDS011;68544;45.566;10.238;2024-02-21T11:49:29;23.02;;;20.50;;
79137;SDS011;68544;45.566;10.238;2024-02-21T11:51:58;25.15;;;22.77;;
79137;SDS011;68544;45.566;10.238;2024-02-21T11:54:24;28.23;;;25.45;;
79137;SDS011;68544;45.566;10.238;2024-02-21T11:56:49;29.42;;;26.55;;
79137;SDS011;68544;45.566;10.238;2024-02-21T11:59:15;31.95;;;28.75;;
79137;SDS011;68544;45.566;10.238;2024-02-21T12:01:40;30.85;;;28.00;;
79137;SDS011;68544;45.566;10.238;2024-02-21T12:04:06;32.83;;;29.55;;
79137;SDS011;68544;45.566;10.238;2024-02-21T12:06:32;33.20;;;30.13;;
79137;SDS011;68544;45.566;10.238;2024-02-21T12:09:00;33.42;;;30.33;;
79137;SDS011;68544;45.566;10.238;2024-02-21T12:11:26;35.03;;;31.80;;
79137;SDS011;68544;45.566;10.238;2024-02-21T12:14:00;33.88;;;30.55;;
79137;SDS011;68544;45.566;10.238;2024-02-21T12:16:28;33.90;;;30.80;;
79137;SDS011;68544;45.566;10.238;2024-02-21T12:18:57;36.25;;;32.75;;
79137;SDS011;68544;45.566;10.238;2024-02-21T12:21:24;36.42;;;33.22;;
79137;SDS011;68544;45.566;10.238;2024-02-21T12:23:55;37.05;;;33.67;;
79137;SDS011;68544;45.566;10.238;2024-02-21T12:26:21;39.45;;;35.65;;
79137;SDS011;68544;45.566;10.238;2024-02-21T12:28:47;41.35;;;37.42;;
79137;SDS011;68544;45.566;10.238;2024-02-21T12:31:12;41.03;;;37.28;;
79137;SDS011;68544;45.566;10.238;2024-02-21T12:33:38;39.05;;;35.45;;
79137;SDS011;68544;45.566;10.238;2024-02-21T12:36:04;40.45;;;36.83;;
79137;SDS011;68544;45.566;10.238;2024-02-21T12:38:29;39.65;;;35.80;;
79137;SDS011;68544;45.566;10.238;2024-02-21T12:40:55;41.78;;;37.53;;
79137;SDS011;68544;45.566;10.238;2024-02-21T12:43:22;40.22;;;36.53;;
79137;SDS011;68544;45.566;10.238;2024-02-21T12:45:47;38.92;;;35.17;;
79137;SDS011;68544;45.566;10.238;2024-02-21T12:48:13;39.00;;;35.30;;
79137;SDS011;68544;45.566;10.238;2024-02-21T12:50:39;41.28;;;37.53;;
79137;SDS011;68544;45.566;10.238;2024-02-21T12:53:09;39.90;;;36.10;;
79137;SDS011;68544;45.566;10.238;2024-02-21T12:58:00;41.58;;;37.55;;
79137;SDS011;68544;45.566;10.238;2024-02-21T13:00:28;40.38;;;36.55;;
79137;SDS011;68544;45.566;10.238;2024-02-21T13:05:19;40.60;;;36.58;;
79137;SDS011;68544;45.566;10.238;2024-02-21T13:07:44;41.10;;;36.88;;
79137;SDS011;68544;45.566;10.238;2024-02-21T13:12:35;39.38;;;35.42;;
79137;SDS011;68544;45.566;10.238;2024-02-21T13:15:00;37.25;;;33.45;;
79137;SDS011;68544;45.566;10.238;2024-02-21T13:17:25;39.53;;;35.28;;
79137;SDS011;68544;45.566;10.238;2024-02-21T13:19:55;40.35;;;36.38;;
79137;SDS011;68544;45.566;10.238;2024-02-21T13:22:20;41.33;;;37.13;;
79137;SDS011;68544;45.566;10.238;2024-02-21T13:24:47;40.63;;;36.53;;
79137;SDS011;68544;45.566;10.238;2024-02-21T13:27:12;41.88;;;36.35;;
79137;SDS011;68544;45.566;10.238;2024-02-21T13:29:38;42.13;;;37.73;;
79137;SDS011;68544;45.566;10.238;2024-02-21T13:32:03;40.33;;;36.27;;
79137;SDS011;68544;45.566;10.238;2024-02-21T13:34:28;41.35;;;37.00;;
79137;SDS011;68544;45.566;10.238;2024-02-21T13:36:54;40.43;;;36.20;;
79137;SDS011;68544;45.566;10.238;2024-02-21T13:39:19;43.63;;;39.03;;
79137;SDS011;68544;45.566;10.238;2024-02-21T13:41:44;41.97;;;37.63;;
79137;SDS011;68544;45.566;10.238;2024-02-21T13:44:10;42.63;;;37.88;;
79137;SDS011;68544;45.566;10.238;2024-02-21T13:46:35;42.75;;;38.30;;
79137;SDS011;68544;45.566;10.238;2024-02-21T13:49:04;41.93;;;37.63;;
79137;SDS011;68544;45.566;10.238;2024-02-21T13:51:33;43.17;;;38.50;;
79137;SDS011;68544;45.566;10.238;2024-02-21T13:54:01;43.58;;;39.00;;
79137;SDS011;68544;45.566;10.238;2024-02-21T13:56:28;44.08;;;39.30;;
79137;SDS011;68544;45.566;10.238;2024-02-21T13:58:53;45.77;;;41.03;;
79137;SDS011;68544;45.566;10.238;2024-02-21T14:01:18;44.90;;;40.13;;
79137;SDS011;68544;45.566;10.238;2024-02-21T14:03:44;44.53;;;39.67;;
79137;SDS011;68544;45.566;10.238;2024-02-21T14:06:09;45.60;;;40.70;;
79137;SDS011;68544;45.566;10.238;2024-02-21T14:08:34;47.40;;;42.27;;
79137;SDS011;68544;45.566;10.238;2024-02-21T14:11:00;45.05;;;40.45;;
79137;SDS011;68544;45.566;10.238;2024-02-21T14:13:26;45.30;;;40.40;;
79137;SDS011;68544;45.566;10.238;2024-02-21T14:15:51;46.77;;;41.87;;
79137;SDS011;68544;45.566;10.238;2024-02-21T14:18:16;46.87;;;41.60;;
79137;SDS011;68544;45.566;10.238;2024-02-21T14:20:42;46.00;;;41.20;;
79137;SDS011;68544;45.566;10.238;2024-02-21T14:23:08;46.67;;;41.97;;
79137;SDS011;68544;45.566;10.238;2024-02-21T14:25:33;45.88;;;41.00;;
79137;SDS011;68544;45.566;10.238;2024-02-21T14:27:58;48.47;;;43.33;;